Time;durP1;ratioP1;P1;durP2;ratioP2;P2;SDS_P1;SDS_P2;PMS_P1;PMS_P2;Temp;Humidity;BMP_temperature;BMP_pressure;BME280_temperature;BME280_humidity;BME280_pressure;Samples;Min_cycle;Max_cycle;Signal;HPM_P1;HPM_P2
2022/01/15 00:00:24;;;;;;;20.30;2.97;;;;;;;2.30;70.43;102476.44;4970904;28;20027;-75
2022/01/15 00:02:49;;;;;;;14.57;2.63;;;;;;;2.29;70.75;102466.66;4972400;28;20035;-75
2022/01/15 00:05:15;;;;;;;10.55;2.22;;;;;;;2.28;70.90;102470.38;4971610;28;20041;-75
2022/01/15 00:07:42;;;;;;;8.85;2.20;;;;;;;2.28;70.34;102471.22;4971907;28;20038;-75
2022/01/15 00:10:07;;;;;;;13.52;2.13;;;;;;;2.27;70.62;102471.41;4954737;28;20081;-74
2022/01/15 00:12:39;;;;;;;21.08;4.78;;;;;;;2.22;71.04;102467.38;4954633;28;20027;-75
2022/01/15 00:15:06;;;;;;;14.43;3.25;;;;;;;2.19;70.91;102467.72;4970759;28;20030;-75
2022/01/15 00:17:45;;;;;;;14.52;2.63;;;;;;;2.14;71.13;102467.41;4970933;28;20045;-75
2022/01/15 00:20:11;;;;;;;17.38;2.80;;;;;;;2.10;71.06;102471.50;4969501;28;20037;-74
2022/01/15 00:22:36;;;;;;;13.85;3.22;;;;;;;2.06;71.12;102470.16;4956667;28;20495;-74
2022/01/15 00:25:01;;;;;;;12.23;2.25;;;;;;;2.02;71.20;102468.84;4965230;28;20045;-74
2022/01/15 00:27:27;;;;;;;14.93;3.38;;;;;;;2.00;71.37;102462.78;4971468;28;20423;-75
2022/01/15 00:29:52;;;;;;;9.23;2.50;;;;;;;1.99;71.71;102469.16;4969939;28;20034;-76
2022/01/15 00:32:18;;;;;;;18.20;2.55;;;;;;;1.96;71.65;102469.53;4938347;28;20472;-75
2022/01/15 00:34:43;;;;;;;13.02;2.33;;;;;;;1.94;71.37;102461.66;4970041;28;20034;-75
2022/01/15 00:37:08;;;;;;;14.55;3.40;;;;;;;1.94;71.81;102471.56;4970243;28;20053;-75
2022/01/15 00:39:34;;;;;;;19.55;3.15;;;;;;;1.93;71.73;102481.47;4970394;28;20034;-75
2022/01/15 00:41:59;;;;;;;10.20;2.22;;;;;;;1.92;72.01;102484.34;4969760;28;20442;-75
2022/01/15 00:44:25;;;;;;;18.15;2.67;;;;;;;1.89;72.00;102490.91;4958522;28;20034;-75
2022/01/15 00:46:50;;;;;;;22.95;2.85;;;;;;;1.87;72.46;102492.94;4973315;28;20031;-75
2022/01/15 00:49:16;;;;;;;15.07;2.17;;;;;;;1.83;72.49;102497.00;4964253;28;20550;-75
2022/01/15 00:51:41;;;;;;;14.75;3.10;;;;;;;1.82;72.67;102499.84;4935049;29;20039;-75
2022/01/15 00:54:06;;;;;;;12.00;3.22;;;;;;;1.77;72.39;102509.28;4952528;28;20108;-74
2022/01/15 00:56:32;;;;;;;22.58;3.25;;;;;;;1.72;72.32;102508.97;4949044;28;20037;-76
2022/01/15 00:58:57;;;;;;;13.10;3.00;;;;;;;1.68;73.00;102510.31;4970910;28;20030;-74
2022/01/15 01:01:23;;;;;;;15.30;2.63;;;;;;;1.64;73.25;102509.00;4949558;28;20027;-75
2022/01/15 01:03:49;;;;;;;21.80;2.83;;;;;;;1.61;72.94;102503.97;4967852;28;20062;-75
2022/01/15 01:06:14;;;;;;;14.57;2.22;;;;;;;1.59;73.05;102489.84;4969354;28;20037;-76
2022/01/15 01:08:40;;;;;;;14.20;2.10;;;;;;;1.56;73.17;102506.31;4949021;28;20097;-74
2022/01/15 01:11:12;;;;;;;15.38;3.10;;;;;;;1.53;73.33;102501.28;4935817;28;20032;-74
2022/01/15 01:24:00;;;;;;;31.02;4.93;;;;;;;1.44;73.71;102502.28;4947592;28;21333;-75
2022/01/15 01:26:47;;;;;;;14.90;3.15;;;;;;;1.48;73.35;102501.78;4968174;28;20530;-76
2022/01/15 01:31:52;;;;;;;10.45;2.38;;;;;;;1.45;73.96;102487.88;4950830;28;20027;-76
2022/01/15 01:34:17;;;;;;;11.35;2.40;;;;;;;1.38;74.01;102486.88;4953568;28;20026;-75
2022/01/15 01:36:54;;;;;;;18.20;3.00;;;;;;;1.35;74.30;102482.66;4953083;28;20093;-75
2022/01/15 01:39:21;;;;;;;20.48;3.28;;;;;;;1.32;74.41;102483.84;4952720;28;20022;-76
2022/01/15 01:42:08;;;;;;;16.38;2.78;;;;;;;1.34;74.23;102486.38;4966215;28;20031;-76
2022/01/15 01:44:39;;;;;;;22.20;3.65;;;;;;;1.34;74.43;102481.00;4969065;28;20768;-75
2022/01/15 01:47:12;;;;;;;16.77;2.80;;;;;;;1.34;74.29;102475.63;4953206;28;20033;-75
2022/01/15 01:49:38;;;;;;;14.90;2.80;;;;;;;1.33;74.14;102474.75;4954210;28;20284;-76
2022/01/15 01:52:04;;;;;;;21.00;3.83;;;;;;;1.33;74.79;102469.38;4973822;28;20693;-75
2022/01/15 01:54:30;;;;;;;15.88;2.30;;;;;;;1.29;74.29;102468.06;4965048;28;20045;-76
2022/01/15 01:56:55;;;;;;;17.88;3.50;;;;;;;1.25;74.63;102468.56;4975009;28;20035;-75
2022/01/15 01:59:21;;;;;;;19.38;2.83;;;;;;;1.18;74.93;102465.75;4958242;28;20031;-75
2022/01/15 02:01:46;;;;;;;16.42;3.00;;;;;;;1.11;74.56;102468.25;4975851;28;20377;-75
2022/01/15 02:04:12;;;;;;;13.98;2.47;;;;;;;1.04;75.08;102471.81;4973973;28;20034;-75
2022/01/15 02:06:37;;;;;;;11.27;3.80;;;;;;;0.97;74.65;102462.72;4965452;28;20037;-74
2022/01/15 02:09:06;;;;;;;13.13;2.90;;;;;;;0.91;75.47;102463.41;4974358;28;20035;-75
2022/01/15 02:11:32;;;;;;;10.38;2.17;;;;;;;0.86;74.90;102464.75;4976259;28;20142;-74
2022/01/15 02:13:57;;;;;;;18.83;3.75;;;;;;;0.82;75.18;102471.47;4956085;28;20499;-75
2022/01/15 02:16:23;;;;;;;14.40;3.08;;;;;;;0.80;75.14;102465.44;4976628;28;20026;-75
2022/01/15 02:18:52;;;;;;;11.43;3.38;;;;;;;0.79;75.44;102462.91;4974523;28;20027;-75
2022/01/15 02:23:51;;;;;;;10.88;2.42;;;;;;;0.82;75.97;102470.63;4959142;28;20030;-76
2022/01/15 02:26:18;;;;;;;15.07;2.92;;;;;;;0.76;75.35;102465.91;4971944;28;20038;-75
2022/01/15 02:28:46;;;;;;;11.65;2.88;;;;;;;0.68;75.57;102460.53;4960888;28;20371;-75
2022/01/15 02:31:15;;;;;;;15.73;2.15;;;;;;;0.62;75.52;102459.38;4958612;28;20026;-74
2022/01/15 02:33:42;;;;;;;16.02;3.65;;;;;;;0.60;75.88;102458.69;4975236;28;20038;-74
2022/01/15 02:36:12;;;;;;;12.38;2.42;;;;;;;0.59;76.32;102454.34;4956559;28;20468;-74
2022/01/15 02:38:38;;;;;;;17.98;2.63;;;;;;;0.61;75.97;102449.66;4974429;28;20476;-75
2022/01/15 02:41:03;;;;;;;15.55;2.95;;;;;;;0.64;76.36;102446.63;4941339;28;20109;-74
2022/01/15 02:43:32;;;;;;;12.70;2.60;;;;;;;0.66;76.49;102444.63;4973089;28;20026;-75
2022/01/15 02:46:07;;;;;;;9.52;2.00;;;;;;;0.66;76.15;102450.00;4975563;28;20037;-75
2022/01/15 02:48:33;;;;;;;11.02;2.67;;;;;;;0.62;76.05;102448.63;4958671;28;20065;-75
2022/01/15 02:50:58;;;;;;;10.88;2.30;;;;;;;0.61;76.75;102455.03;4975734;28;20023;-75
2022/01/15 02:53:24;;;;;;;14.70;2.42;;;;;;;0.61;76.64;102457.69;4956862;28;20033;-74
2022/01/15 02:55:51;;;;;;;15.95;3.00;;;;;;;0.61;76.34;102446.97;4957627;28;20092;-75
2022/01/15 02:58:17;;;;;;;16.85;2.97;;;;;;;0.60;76.60;102447.94;4951000;28;20038;-75
2022/01/15 03:00:43;;;;;;;15.75;2.20;;;;;;;0.60;76.68;102442.59;4965969;28;20035;-74
2022/01/15 03:03:08;;;;;;;17.10;3.58;;;;;;;0.62;76.81;102444.09;4938204;28;20188;-75
2022/01/15 03:05:33;;;;;;;19.55;2.47;;;;;;;0.65;76.87;102448.28;4969981;28;20030;-74
2022/01/15 03:07:59;;;;;;;16.50;3.42;;;;;;;0.60;77.02;102451.50;4973674;28;20034;-75
2022/01/15 03:10:24;;;;;;;17.52;2.90;;;;;;;0.62;77.18;102449.47;4968878;28;20448;-75
2022/01/15 03:12:51;;;;;;;16.25;4.13;;;;;;;0.68;76.63;102437.22;4969462;28;20031;-75
2022/01/15 03:15:19;;;;;;;15.35;2.88;;;;;;;0.71;76.99;102439.59;4957376;28;20169;-75
2022/01/15 03:17:45;;;;;;;11.95;2.50;;;;;;;0.74;77.05;102433.88;4970513;28;20419;-76
2022/01/15 03:20:12;;;;;;;15.32;2.60;;;;;;;0.81;76.99;102434.03;4956939;28;20034;-75
2022/01/15 03:22:37;;;;;;;9.65;2.78;;;;;;;0.80;77.27;102433.22;4973565;28;20031;-75
2022/01/15 03:25:03;;;;;;;9.43;2.33;;;;;;;0.77;77.29;102436.22;4973085;28;20033;-74
2022/01/15 03:27:28;;;;;;;24.25;3.40;;;;;;;0.74;77.14;102436.56;4971636;28;20033;-74
2022/01/15 03:29:53;;;;;;;10.95;2.42;;;;;;;0.75;77.74;102432.03;4974668;28;20023;-75
2022/01/15 03:32:19;;;;;;;11.35;2.47;;;;;;;0.77;77.63;102441.59;4938264;29;20038;-75
2022/01/15 03:34:45;;;;;;;14.70;3.00;;;;;;;0.77;78.10;102441.59;4972539;28;20057;-75
2022/01/15 03:37:10;;;;;;;14.48;3.08;;;;;;;0.83;77.96;102440.09;4956163;28;20081;-75
2022/01/15 03:39:37;;;;;;;15.57;3.05;;;;;;;0.87;78.05;102439.59;4970118;28;20439;-74
2022/01/15 03:42:04;;;;;;;20.35;3.38;;;;;;;0.91;77.96;102436.56;4970397;28;20035;-75
2022/01/15 03:44:29;;;;;;;16.92;3.30;;;;;;;0.93;77.76;102435.38;4968169;28;20065;-74
2022/01/15 03:46:55;;;;;;;21.65;3.35;;;;;;;0.99;78.47;102436.56;4974942;28;20027;-75
2022/01/15 03:49:20;;;;;;;14.95;3.42;;;;;;;1.05;78.05;102433.19;4955205;28;20100;-75
2022/01/15 03:51:45;;;;;;;18.63;3.05;;;;;;;1.11;78.58;102432.50;4972527;28;20034;-74
2022/01/15 03:54:11;;;;;;;15.90;2.90;;;;;;;1.19;78.24;102429.78;4970163;28;20491;-75
2022/01/15 03:56:36;;;;;;;13.70;2.80;;;;;;;1.23;78.68;102423.09;4972414;28;20031;-75
2022/01/15 03:59:01;;;;;;;13.95;2.13;;;;;;;1.25;79.21;102423.72;4956211;28;20497;-75
2022/01/15 04:01:27;;;;;;;16.95;3.30;;;;;;;1.29;78.77;102418.88;4971724;28;20030;-74
2022/01/15 04:03:52;;;;;;;19.77;3.40;;;;;;;1.30;78.96;102423.22;4970771;28;20027;-75
2022/01/15 04:06:18;;;;;;;11.18;2.85;;;;;;;1.31;79.17;102428.44;4974534;28;20053;-75
2022/01/15 04:08:43;;;;;;;17.58;3.20;;;;;;;1.30;79.18;102415.16;4971808;28;20057;-75
2022/01/15 04:11:08;;;;;;;12.25;2.35;;;;;;;1.27;78.63;102413.66;4954226;28;20037;-76
2022/01/15 04:13:34;;;;;;;15.23;2.38;;;;;;;1.29;79.66;102421.56;4972636;28;20069;-74
2022/01/15 04:16:00;;;;;;;21.55;3.35;;;;;;;1.29;78.99;102422.38;4973480;28;20023;-75
2022/01/15 04:18:28;;;;;;;26.02;2.80;;;;;;;1.31;79.58;102416.84;4950874;28;20023;-75
2022/01/15 04:20:53;;;;;;;15.00;2.92;;;;;;;1.35;79.90;102417.34;4956693;28;20050;-74
2022/01/15 04:23:19;;;;;;;22.52;3.10;;;;;;;1.38;79.99;102428.56;4972270;28;20058;-75
2022/01/15 04:25:44;;;;;;;24.13;3.80;;;;;;;1.41;79.33;102427.41;4953850;28;20027;-75
2022/01/15 04:28:11;;;;;;;16.08;3.47;;;;;;;1.42;79.72;102424.53;4952050;28;20058;-74
2022/01/15 04:30:39;;;;;;;13.38;3.17;;;;;;;1.43;79.34;102420.84;4968403;28;20023;-74
2022/01/15 04:33:05;;;;;;;15.70;2.97;;;;;;;1.43;79.42;102420.00;4954649;28;20659;-75
2022/01/15 04:35:30;;;;;;;22.25;3.30;;;;;;;1.44;79.83;102406.38;4952989;28;20026;-75
2022/01/15 04:38:03;;;;;;;18.35;3.00;;;;;;;1.47;79.60;102407.88;4971395;28;20030;-74
2022/01/15 04:40:28;;;;;;;23.73;3.78;;;;;;;1.49;79.68;102416.63;4952814;28;20052;-75
2022/01/15 04:42:54;;;;;;;16.75;3.05;;;;;;;1.50;79.79;102410.22;4962781;28;20476;-74
2022/01/15 04:45:19;;;;;;;18.63;2.72;;;;;;;1.53;79.44;102409.91;4971354;28;20034;-75
2022/01/15 04:47:44;;;;;;;15.98;3.80;;;;;;;1.52;79.63;102398.28;4974024;28;20085;-75
2022/01/15 04:50:13;;;;;;;20.70;3.05;;;;;;;1.50;79.77;102408.41;4971584;28;20070;-74
2022/01/15 04:52:39;;;;;;;25.75;3.63;;;;;;;1.48;79.81;102396.97;4971566;28;20110;-75
2022/01/15 04:55:05;;;;;;;30.63;3.42;;;;;;;1.45;80.51;102396.50;4972992;28;20046;-74
2022/01/15 04:57:31;;;;;;;16.63;3.15;;;;;;;1.43;79.95;102393.13;4953228;28;20114;-74
2022/01/15 04:59:56;;;;;;;12.20;2.85;;;;;;;1.39;80.03;102381.03;4972423;28;20019;-74
2022/01/15 05:02:22;;;;;;;13.02;2.55;;;;;;;1.32;80.45;102392.47;4968728;28;20543;-74
2022/01/15 05:04:47;;;;;;;15.25;2.65;;;;;;;1.21;79.80;102390.16;4978951;28;20026;-75
2022/01/15 05:07:12;;;;;;;10.73;2.25;;;;;;;1.11;79.89;102384.16;4952748;28;20085;-75
2022/01/15 05:09:38;;;;;;;15.98;2.70;;;;;;;1.05;80.40;102400.94;4969470;28;20088;-74
2022/01/15 05:12:27;;;;;;;18.40;3.60;;;;;;;0.99;80.22;102396.28;4971234;28;20030;-75
2022/01/15 05:14:49;;;;;;;11.48;2.38;;;;;;;0.95;80.42;102389.56;4935670;28;20031;-74
2022/01/15 05:17:14;;;;;;;10.93;2.78;;;;;;;0.95;80.47;102378.81;4970451;28;20066;-75
2022/01/15 05:19:40;;;;;;;18.25;3.65;;;;;;;0.97;80.19;102374.13;4970746;28;20061;-75
2022/01/15 05:22:05;;;;;;;18.55;4.15;;;;;;;0.98;80.48;102375.78;4969844;28;20023;-75
2022/01/15 05:24:31;;;;;;;17.50;3.60;;;;;;;0.98;80.09;102379.31;4971677;28;20031;-75
2022/01/15 05:26:57;;;;;;;11.43;2.80;;;;;;;0.99;80.95;102366.72;4967641;28;20022;-74
2022/01/15 05:29:22;;;;;;;21.73;4.50;;;;;;;0.95;80.43;102362.69;4955572;28;20090;-76
2022/01/15 05:31:47;;;;;;;18.15;3.05;;;;;;;0.93;80.60;102359.34;4953566;28;20031;-76
2022/01/15 05:34:13;;;;;;;14.95;3.30;;;;;;;0.91;81.27;102351.47;4964192;28;20065;-74
2022/01/15 05:36:39;;;;;;;21.30;3.83;;;;;;;0.91;81.44;102356.00;4970785;28;20429;-75
2022/01/15 05:39:05;;;;;;;15.88;3.65;;;;;;;0.87;80.90;102359.03;4954023;28;20104;-74
2022/01/15 05:41:31;;;;;;;13.88;3.65;;;;;;;0.87;81.62;102364.41;4966859;28;20027;-74
2022/01/15 05:44:00;;;;;;;12.18;2.70;;;;;;;0.87;81.14;102364.41;4971842;28;20023;-75
2022/01/15 05:46:26;;;;;;;17.02;2.97;;;;;;;0.87;81.60;102356.34;4962606;28;20033;-75
2022/01/15 05:48:52;;;;;;;10.07;2.65;;;;;;;0.80;81.51;102354.50;4955040;28;20130;-75
2022/01/15 05:51:17;;;;;;;14.50;2.58;;;;;;;0.74;81.87;102356.03;4971745;28;20022;-75
2022/01/15 05:53:42;;;;;;;11.88;2.50;;;;;;;0.74;81.72;102350.66;4971777;28;20035;-75
2022/01/15 05:56:08;;;;;;;15.82;3.22;;;;;;;0.77;81.78;102344.13;4975712;28;20027;-75
2022/01/15 05:58:33;;;;;;;18.13;3.92;;;;;;;0.82;82.04;102347.97;4960731;28;20547;-74
2022/01/15 06:00:59;;;;;;;19.75;5.68;;;;;;;0.87;81.84;102355.50;4980601;28;20538;-75
2022/01/15 06:03:25;;;;;;;12.68;2.13;;;;;;;0.84;81.89;102353.97;4953237;28;20031;-75
2022/01/15 06:05:50;;;;;;;18.88;2.92;;;;;;;0.76;81.91;102354.00;4966291;28;20384;-74
2022/01/15 06:08:15;;;;;;;14.73;2.35;;;;;;;0.69;82.24;102355.69;4969860;28;20053;-75
2022/01/15 06:10:41;;;;;;;12.63;3.05;;;;;;;0.65;82.47;102357.03;4972225;28;20027;-75
2022/01/15 06:13:06;;;;;;;23.70;3.53;;;;;;;0.64;82.70;102350.00;4971087;28;20030;-75
2022/01/15 06:15:32;;;;;;;15.35;2.97;;;;;;;0.65;82.09;102346.28;4949252;28;20104;-76
2022/01/15 06:17:57;;;;;;;14.82;3.05;;;;;;;0.65;82.71;102340.94;4946237;28;20029;-75
2022/01/15 06:20:23;;;;;;;19.00;3.03;;;;;;;0.61;82.38;102350.34;4960990;28;20031;-75
2022/01/15 06:22:48;;;;;;;15.98;2.53;;;;;;;0.56;82.97;102350.00;4948411;29;20035;-74
2022/01/15 06:25:13;;;;;;;11.13;2.88;;;;;;;0.52;82.92;102359.38;4952690;28;20031;-75
2022/01/15 06:27:39;;;;;;;12.05;3.10;;;;;;;0.48;82.81;102352.69;4971411;28;20026;-74
2022/01/15 06:30:05;;;;;;;11.25;2.90;;;;;;;0.46;83.13;102352.03;4971458;28;20034;-74
2022/01/15 06:32:35;;;;;;;22.42;5.30;;;;;;;0.43;82.80;102353.19;4970373;28;20022;-75
2022/01/15 06:35:02;;;;;;;23.73;4.38;;;;;;;0.43;82.87;102359.38;4963051;28;20488;-74
2022/01/15 06:37:27;;;;;;;19.33;3.40;;;;;;;0.53;82.79;102358.41;4971738;28;20035;-75
2022/01/15 06:39:52;;;;;;;15.23;4.18;;;;;;;0.59;82.97;102363.09;4975099;28;20052;-75
2022/01/15 06:42:18;;;;;;;17.92;3.10;;;;;;;0.61;82.74;102359.22;4974312;28;20033;-75
2022/01/15 06:44:43;;;;;;;17.55;3.55;;;;;;;0.59;82.99;102363.09;4964814;28;20034;-75
2022/01/15 06:47:09;;;;;;;14.15;3.35;;;;;;;0.64;83.45;102366.94;4971374;28;20027;-75
2022/01/15 06:49:34;;;;;;;12.82;3.28;;;;;;;0.68;82.89;102362.06;4975795;28;20101;-74
2022/01/15 06:51:59;;;;;;;11.98;2.70;;;;;;;0.63;83.19;102359.06;4974717;28;20039;-75
2022/01/15 06:54:25;;;;;;;11.35;2.80;;;;;;;0.56;83.47;102353.53;4965158;28;20035;-75
2022/01/15 06:56:50;;;;;;;18.27;3.47;;;;;;;0.55;83.76;102359.06;4974863;28;20102;-74
2022/01/15 06:59:16;;;;;;;19.85;3.47;;;;;;;0.69;83.34;102358.38;4975946;28;20026;-75
2022/01/15 07:01:41;;;;;;;27.25;4.65;;;;;;;0.85;83.29;102358.38;4974655;28;20498;-76
2022/01/15 07:04:06;;;;;;;25.25;4.50;;;;;;;0.97;83.53;102360.69;4954660;28;20098;-75
2022/01/15 07:06:32;;;;;;;17.10;3.90;;;;;;;1.06;83.65;102360.50;4966071;28;20405;-75
2022/01/15 07:08:57;;;;;;;22.60;4.10;;;;;;;1.11;84.12;102351.91;4973596;28;20027;-75
2022/01/15 07:11:22;;;;;;;28.30;6.53;;;;;;;1.15;83.17;102350.56;4966683;28;20023;-75
2022/01/15 07:13:48;;;;;;;24.77;4.25;;;;;;;1.20;83.58;102358.09;4971315;28;20039;-74
2022/01/15 07:16:13;;;;;;;22.15;3.25;;;;;;;1.22;83.81;102362.28;4974925;28;20030;-75
2022/01/15 07:18:38;;;;;;;20.13;5.40;;;;;;;1.26;83.99;102360.94;4956777;28;20042;-75
2022/01/15 07:21:04;;;;;;;27.77;4.25;;;;;;;1.29;84.07;102357.91;4975261;28;20027;-75
2022/01/15 07:23:29;;;;;;;18.42;3.22;;;;;;;1.27;83.82;102351.84;4955944;28;20030;-75
2022/01/15 07:25:54;;;;;;;18.25;4.32;;;;;;;1.22;84.44;102359.59;4955353;28;20049;-74
2022/01/15 07:28:20;;;;;;;18.08;3.90;;;;;;;1.23;84.30;102355.09;4963092;28;20035;-74
2022/01/15 07:30:46;;;;;;;20.83;3.58;;;;;;;1.23;84.26;102344.34;4968800;28;20022;-75
2022/01/15 07:33:12;;;;;;;26.27;3.83;;;;;;;1.18;84.92;102346.69;4972684;28;20396;-75
2022/01/15 07:35:37;;;;;;;26.65;4.82;;;;;;;1.18;84.88;102350.22;4973732;28;20101;-75
2022/01/15 07:38:03;;;;;;;21.10;4.68;;;;;;;1.21;84.93;102351.72;4974074;28;20026;-75
2022/01/15 07:40:28;;;;;;;17.70;3.78;;;;;;;1.16;85.32;102351.41;4955974;28;20022;-75
2022/01/15 07:42:53;;;;;;;16.17;3.92;;;;;;;1.02;85.10;102352.94;4954978;28;20031;-75
2022/01/15 07:45:19;;;;;;;16.42;3.70;;;;;;;0.88;85.12;102344.59;4971962;28;20387;-75
2022/01/15 07:47:44;;;;;;;23.77;3.80;;;;;;;0.89;85.06;102348.94;4972056;28;20034;-75
2022/01/15 07:50:13;;;;;;;28.05;5.50;;;;;;;1.00;85.48;102349.59;4954328;28;20503;-76
2022/01/15 07:52:38;;;;;;;31.00;4.40;;;;;;;1.05;85.16;102345.38;4955517;28;20035;-75
2022/01/15 07:55:04;;;;;;;19.73;4.50;;;;;;;1.08;85.54;102347.72;4972927;28;20431;-74
2022/01/15 07:57:30;;;;;;;19.67;3.92;;;;;;;1.10;85.17;102352.94;4955835;28;20037;-74
2022/01/15 07:59:55;;;;;;;35.03;4.03;;;;;;;1.13;85.12;102347.22;4973443;28;20030;-75
2022/01/15 08:02:21;;;;;;;17.88;3.25;;;;;;;1.20;85.62;102336.59;4951337;28;20038;-77
2022/01/15 08:04:46;;;;;;;25.17;5.38;;;;;;;1.23;85.67;102338.97;4952258;28;20497;-76
2022/01/15 08:07:11;;;;;;;20.40;3.63;;;;;;;1.22;85.80;102329.22;4952170;28;20039;-75
2022/01/15 08:09:37;;;;;;;22.00;3.92;;;;;;;1.13;85.28;102333.78;4946394;28;20034;-75
2022/01/15 08:12:03;;;;;;;21.83;3.60;;;;;;;1.07;85.53;102329.09;4950943;28;20473;-75
2022/01/15 08:14:29;;;;;;;17.73;3.35;;;;;;;1.00;85.95;102337.00;4970306;28;20033;-76
2022/01/15 08:16:54;;;;;;;13.48;2.85;;;;;;;0.94;85.65;102331.50;4973490;28;20027;-75
2022/01/15 08:19:19;;;;;;;23.48;3.63;;;;;;;0.86;86.18;102327.81;4969016;28;20027;-75
2022/01/15 08:21:45;;;;;;;10.95;3.17;;;;;;;0.85;85.85;102325.31;4970186;28;20073;-75
2022/01/15 08:24:10;;;;;;;17.30;3.65;;;;;;;0.85;86.30;102325.31;4976587;28;20322;-73
2022/01/15 08:26:36;;;;;;;24.85;4.18;;;;;;;0.89;86.12;102315.88;4972734;28;20494;-74
2022/01/15 08:29:02;;;;;;;19.42;4.20;;;;;;;0.94;85.98;102323.44;4968091;28;20054;-74
2022/01/15 08:31:27;;;;;;;25.35;4.43;;;;;;;0.96;86.45;102321.44;4954745;28;20495;-75
2022/01/15 08:33:53;;;;;;;20.17;4.05;;;;;;;0.98;86.14;102330.13;4949676;28;20041;-75
2022/01/15 08:36:18;;;;;;;12.77;3.55;;;;;;;0.99;86.19;102329.13;4956045;28;20388;-75
2022/01/15 08:38:44;;;;;;;21.52;4.93;;;;;;;1.09;86.55;102327.06;4953227;28;20031;-75
2022/01/15 08:41:12;;;;;;;24.80;4.97;;;;;;;1.20;86.46;102325.84;4966325;28;20026;-74
2022/01/15 08:43:38;;;;;;;16.50;4.32;;;;;;;1.26;86.28;102323.31;4970211;28;20321;-75
2022/01/15 08:46:03;;;;;;;24.02;4.78;;;;;;;1.26;86.38;102322.50;4968726;28;20034;-75
2022/01/15 08:48:29;;;;;;;18.27;3.50;;;;;;;1.28;86.36;102320.44;4953768;28;20046;-75
2022/01/15 08:50:54;;;;;;;18.73;5.32;;;;;;;1.26;86.44;102317.94;4955241;28;20018;-74
2022/01/15 08:53:21;;;;;;;18.27;3.92;;;;;;;1.30;86.31;102315.75;4963282;28;20034;-75
2022/01/15 08:55:47;;;;;;;28.55;4.63;;;;;;;1.33;86.72;102302.78;4948686;28;20027;-75
2022/01/15 08:58:12;;;;;;;25.70;5.13;;;;;;;1.42;86.69;102289.31;4933400;28;20417;-72
2022/01/15 09:00:38;;;;;;;17.85;4.07;;;;;;;1.47;86.75;102281.56;4948539;28;20034;-76
2022/01/15 09:03:04;;;;;;;18.52;5.45;;;;;;;1.52;86.53;102279.19;4967743;28;20038;-74
2022/01/15 09:05:32;;;;;;;21.00;4.60;;;;;;;1.57;86.54;102275.97;4966593;28;20027;-75
2022/01/15 09:07:57;;;;;;;27.42;5.10;;;;;;;1.63;86.93;102276.09;4947111;28;20042;-73
2022/01/15 09:10:22;;;;;;;31.02;5.18;;;;;;;1.70;86.43;102271.69;4965679;28;20023;-75
2022/01/15 09:12:48;;;;;;;26.65;5.80;;;;;;;1.78;86.87;102265.41;4958647;28;20112;-74
2022/01/15 09:15:14;;;;;;;21.33;4.45;;;;;;;1.83;87.28;102259.47;4947917;28;20085;-75
2022/01/15 09:17:40;;;;;;;21.58;6.32;;;;;;;1.84;86.89;102263.84;4964125;28;20532;-75
2022/01/15 09:20:05;;;;;;;27.80;5.35;;;;;;;1.87;86.46;102272.41;4932668;28;20121;-75
2022/01/15 09:22:31;;;;;;;33.65;5.43;;;;;;;1.92;87.13;102269.19;4948443;28;20031;-74
2022/01/15 09:24:56;;;;;;;26.98;5.93;;;;;;;1.95;86.97;102269.66;4950777;28;20027;-74
2022/01/15 09:30:13;;;;;;;37.88;5.63;;;;;;;2.03;87.40;102266.06;4953010;28;20352;-75
2022/01/15 09:32:46;;;;;;;38.30;7.43;;;;;;;2.08;87.63;102268.22;4950540;28;20023;-75
2022/01/15 09:35:15;;;;;;;25.98;5.20;;;;;;;2.13;87.36;102258.59;4941813;28;20031;-75
2022/01/15 09:37:41;;;;;;;29.48;6.28;;;;;;;2.21;88.03;102255.81;4952518;28;20122;-75
2022/01/15 09:40:07;;;;;;;22.38;5.90;;;;;;;2.27;88.17;102266.88;4952427;28;20023;-75
2022/01/15 09:42:33;;;;;;;31.90;6.40;;;;;;;2.32;88.40;102253.69;4953000;28;20041;-74
2022/01/15 09:44:58;;;;;;;24.63;6.70;;;;;;;2.36;88.66;102263.06;4966190;28;20027;-75
2022/01/15 09:47:24;;;;;;;21.25;5.63;;;;;;;2.40;88.82;102262.53;4951895;28;20503;-76
2022/01/15 09:49:50;;;;;;;23.50;4.82;;;;;;;2.47;88.65;102265.31;4953090;28;20051;-75
2022/01/15 09:52:16;;;;;;;41.40;6.28;;;;;;;2.55;89.19;102251.78;4952671;28;20563;-75
2022/01/15 09:54:42;;;;;;;31.38;6.00;;;;;;;2.59;89.40;102254.94;4953569;28;20030;-76
2022/01/15 09:57:08;;;;;;;25.38;4.50;;;;;;;2.64;89.41;102253.34;4960480;28;20033;-75
2022/01/15 09:59:33;;;;;;;33.38;5.25;;;;;;;2.72;89.57;102247.03;4953686;28;20030;-76
2022/01/15 10:02:02;;;;;;;28.42;5.45;;;;;;;2.77;89.57;102246.50;4969858;28;20480;-75
2022/01/15 10:04:31;;;;;;;32.38;5.35;;;;;;;2.83;89.39;102243.06;4970258;28;20122;-77
2022/01/15 10:07:22;;;;;;;27.55;5.57;;;;;;;2.89;89.74;102243.16;4964474;28;20027;-76
2022/01/15 10:09:48;;;;;;;36.85;10.30;;;;;;;2.95;89.86;102249.66;4953648;28;20019;-76
2022/01/15 10:12:28;;;;;;;25.42;5.57;;;;;;;3.00;89.71;102246.38;4937072;28;20399;-75
2022/01/15 10:15:00;;;;;;;24.70;5.28;;;;;;;3.02;90.09;102249.72;4937237;28;20026;-75
2022/01/15 10:17:29;;;;;;;26.23;5.85;;;;;;;3.05;89.86;102252.88;4956486;28;20039;-75
2022/01/15 10:19:58;;;;;;;21.63;5.32;;;;;;;3.09;89.80;102262.28;4962212;28;20038;-76
2022/01/15 10:22:24;;;;;;;26.02;5.03;;;;;;;3.14;90.09;102261.72;4973602;28;20031;-77
2022/01/15 10:25:03;;;;;;;26.60;5.30;;;;;;;3.21;89.98;102259.09;4977461;28;20085;-76
2022/01/15 10:27:38;;;;;;;35.47;5.20;;;;;;;3.26;90.11;102267.44;4969322;28;20044;-76
2022/01/15 10:30:10;;;;;;;32.45;5.20;;;;;;;3.31;90.42;102265.03;4958492;28;20034;-77
2022/01/15 10:32:41;;;;;;;27.00;4.93;;;;;;;3.35;90.46;102260.91;4953951;28;20038;-76
2022/01/15 10:35:14;;;;;;;27.05;4.72;;;;;;;3.41;90.36;102270.97;4957959;28;20385;-76
2022/01/15 10:37:57;;;;;;;31.77;5.13;;;;;;;3.48;90.50;102258.38;4967546;28;20023;-76
2022/01/15 10:40:25;;;;;;;34.60;5.47;;;;;;;3.53;90.21;102255.94;4938293;29;20114;-77
2022/01/15 10:42:54;;;;;;;24.88;4.95;;;;;;;3.56;90.08;102258.25;4956986;28;20539;-75
2022/01/15 10:45:19;;;;;;;29.85;4.00;;;;;;;3.60;90.45;102265.94;4972698;28;20388;-75
2022/01/15 10:47:48;;;;;;;28.65;5.07;;;;;;;3.63;90.42;102258.34;4952971;28;20037;-75
2022/01/15 10:50:24;;;;;;;28.40;5.20;;;;;;;3.70;90.40;102255.69;4953814;29;20063;-78
2022/01/15 10:52:50;;;;;;;35.40;6.13;;;;;;;3.73;90.39;102255.31;4956293;28;20031;-75
2022/01/15 10:55:16;;;;;;;25.38;4.75;;;;;;;3.78;90.28;102255.56;4937795;29;20034;-76
2022/01/15 10:57:46;;;;;;;30.15;6.55;;;;;;;3.80;90.58;102258.09;4954987;29;20400;-75
2022/01/15 11:00:37;;;;;;;35.38;4.97;;;;;;;3.79;90.40;102257.22;4944550;29;20031;-75
2022/01/15 11:03:07;;;;;;;27.52;4.53;;;;;;;3.79;90.62;102257.22;4955551;28;20508;-76
2022/01/15 11:05:33;;;;;;;30.27;4.97;;;;;;;3.77;90.44;102254.75;4936347;29;20492;-76
2022/01/15 11:08:15;;;;;;;22.73;4.15;;;;;;;3.76;90.63;102246.81;4940220;29;20035;-76
2022/01/15 11:10:42;;;;;;;28.05;4.53;;;;;;;3.74;90.37;102247.03;4956916;28;20042;-76
2022/01/15 11:13:11;;;;;;;33.70;4.90;;;;;;;3.74;90.38;102246.22;4953490;29;20518;-76
2022/01/15 11:15:45;;;;;;;22.65;4.53;;;;;;;3.73;90.39;102244.53;4937652;29;20027;-75
2022/01/15 11:18:18;;;;;;;17.30;4.10;;;;;;;3.76;90.34;102241.44;4918133;29;20059;-76
2022/01/15 11:20:47;;;;;;;29.77;4.20;;;;;;;3.74;90.39;102238.94;4941768;29;20042;-75
2022/01/15 11:23:12;;;;;;;22.58;4.85;;;;;;;3.76;90.28;102233.34;4901464;29;20036;-75
2022/01/15 11:25:38;;;;;;;25.70;4.57;;;;;;;3.78;90.44;102239.38;4946012;28;20480;-75
2022/01/15 11:28:05;;;;;;;29.27;4.18;;;;;;;3.83;90.61;102241.50;4920441;29;20034;-75
2022/01/15 11:30:30;;;;;;;31.88;5.15;;;;;;;3.86;90.39;102224.94;4936445;29;20585;-73
2022/01/15 11:32:56;;;;;;;30.20;5.50;;;;;;;3.86;90.31;102217.66;4935834;29;20187;-77
2022/01/15 11:35:21;;;;;;;27.70;4.65;;;;;;;3.90;90.48;102210.88;4938958;29;20045;-76
2022/01/15 11:37:53;;;;;;;24.83;5.20;;;;;;;3.90;90.55;102205.47;4934069;29;20175;-75
2022/01/15 11:40:42;;;;;;;33.90;4.90;;;;;;;3.90;90.62;102208.19;4945004;29;20035;-75